createdAt,value
2018-09-03T00:02:07.681Z,22.94
2018-09-03T00:07:11.254Z,22.92
2018-09-03T00:12:14.874Z,22.91
2018-09-03T00:17:18.589Z,22.93
2018-09-03T00:22:22.174Z,22.88
2018-09-03T00:27:25.904Z,22.84
2018-09-03T00:32:34.757Z,22.83
2018-09-03T00:37:43.462Z,22.79
2018-09-03T00:42:52.302Z,22.76
2018-09-03T00:47:55.966Z,22.75
2018-09-03T00:52:59.618Z,22.75
2018-09-03T00:58:03.266Z,22.72
2018-09-03T01:03:06.965Z,22.70
2018-09-03T01:08:10.648Z,22.65
2018-09-03T01:13:14.234Z,22.65
2018-09-03T01:18:17.854Z,22.65
2018-09-03T01:23:21.518Z,22.64
2018-09-03T01:28:25.328Z,22.62
2018-09-03T01:33:28.962Z,22.58
2018-09-03T01:38:32.655Z,22.56
2018-09-03T01:43:36.241Z,22.56
2018-09-03T01:48:39.970Z,22.54
2018-09-03T01:53:43.604Z,22.50
2018-09-03T01:58:47.239Z,22.52
2018-09-03T02:03:52.090Z,22.50
2018-09-03T02:08:55.692Z,22.47
2018-09-03T02:13:59.298Z,22.48
2018-09-03T02:19:02.957Z,22.47
2018-09-03T02:24:06.772Z,22.43
2018-09-03T02:29:10.365Z,22.40
2018-09-03T02:34:13.978Z,22.43
2018-09-03T02:39:17.578Z,22.40
2018-09-03T02:44:21.283Z,22.35
2018-09-03T02:49:24.945Z,22.35
2018-09-03T02:54:28.659Z,22.30
2018-09-03T02:59:32.231Z,22.34
2018-09-03T03:04:35.849Z,22.30
2018-09-03T03:09:39.460Z,22.33
2018-09-03T03:14:43.160Z,22.30
2018-09-03T03:19:46.914Z,22.29
2018-09-03T03:24:50.606Z,22.29
2018-09-03T03:29:54.254Z,22.27
2018-09-03T03:34:57.914Z,22.27
2018-09-03T03:40:01.732Z,22.26
2018-09-03T03:45:05.470Z,21.86
2018-09-03T03:50:09.363Z,21.58
2018-09-03T03:55:13.089Z,22.02
2018-09-03T04:00:16.725Z,22.18
2018-09-03T04:05:20.318Z,22.08
2018-09-03T04:10:23.936Z,22.13
2018-09-03T04:15:27.704Z,21.46
2018-09-03T04:20:31.398Z,21.48
2018-09-03T04:25:35.061Z,21.78
2018-09-03T04:30:38.673Z,21.45
2018-09-03T04:35:42.225Z,21.10
2018-09-03T04:40:45.929Z,20.71
2018-09-03T04:45:49.666Z,20.82
2018-09-03T04:50:53.328Z,20.75
2018-09-03T04:55:56.898Z,21.01
2018-09-03T05:01:00.575Z,21.19
2018-09-03T05:06:04.261Z,21.42
2018-09-03T05:11:07.898Z,20.90
2018-09-03T05:16:11.561Z,21.16
2018-09-03T05:21:15.323Z,21.61
2018-09-03T05:26:18.927Z,21.65
2018-09-03T05:31:22.595Z,21.61
2018-09-03T05:36:26.245Z,21.64
2018-09-03T05:41:29.925Z,21.64
2018-09-03T05:46:33.616Z,21.57
2018-09-03T05:51:37.258Z,21.58
2018-09-03T05:56:40.892Z,21.63
2018-09-03T06:01:44.686Z,21.62
2018-09-03T06:06:48.288Z,21.60
2018-09-03T06:11:51.926Z,21.61
2018-09-03T06:16:55.524Z,21.58
2018-09-03T06:21:59.277Z,21.52
2018-09-03T06:27:02.915Z,21.45
2018-09-03T06:32:06.653Z,21.35
2018-09-03T06:37:10.306Z,21.56
2018-09-03T06:42:13.970Z,21.58
2018-09-03T06:47:17.612Z,21.61
2018-09-03T06:52:21.264Z,21.50
2018-09-03T06:57:25.056Z,21.22
2018-09-03T07:02:28.733Z,21.07
2018-09-03T07:07:32.312Z,21.05
2018-09-03T07:12:35.967Z,21.04
2018-09-03T07:17:39.994Z,20.92
2018-09-03T07:22:43.689Z,21.01
2018-09-03T07:27:47.415Z,20.99
2018-09-03T07:32:51.022Z,21.00
2018-09-03T07:37:54.651Z,20.95
2018-09-03T07:42:58.290Z,20.95
2018-09-03T07:48:01.898Z,20.89
2018-09-03T07:53:05.537Z,21.03
2018-09-03T07:58:09.592Z,20.97
2018-09-03T08:03:13.198Z,20.96
2018-09-03T08:08:16.831Z,20.79
2018-09-03T08:13:25.702Z,20.73
2018-09-03T08:18:29.356Z,20.78
2018-09-03T08:23:32.942Z,20.92
2018-09-03T08:28:36.621Z,20.99
2018-09-03T08:33:40.257Z,21.07
2018-09-03T08:38:43.886Z,21.13
2018-09-03T08:43:47.852Z,21.16
2018-09-03T08:48:51.463Z,21.11
2018-09-03T08:53:55.125Z,21.28
2018-09-03T08:58:58.787Z,21.33
2018-09-03T09:04:02.503Z,21.39
2018-09-03T09:09:08.217Z,21.41
2018-09-03T09:14:11.828Z,21.38
2018-09-03T09:19:15.501Z,21.40
2018-09-03T09:24:19.217Z,21.43
2018-09-03T09:29:22.787Z,21.44
2018-09-03T09:34:26.426Z,21.49
2018-09-03T09:39:30.061Z,21.52
2018-09-03T09:44:33.671Z,21.47
2018-09-03T09:49:37.297Z,21.55
2018-09-03T09:54:40.939Z,21.52
2018-09-03T09:59:44.607Z,21.60
2018-09-03T10:04:48.196Z,21.68
2018-09-03T10:09:51.847Z,21.69
2018-09-03T10:14:55.467Z,21.69
2018-09-03T10:19:59.524Z,21.75
2018-09-03T10:25:03.297Z,21.81
2018-09-03T10:30:08.113Z,21.78
2018-09-03T10:35:11.713Z,21.80
2018-09-03T10:40:15.302Z,21.84
2018-09-03T10:45:18.889Z,21.89
2018-09-03T10:50:22.543Z,21.97
2018-09-03T10:55:26.198Z,22.00
2018-09-03T11:00:29.795Z,22.01
2018-09-03T11:05:33.389Z,22.08
2018-09-03T11:10:36.973Z,22.09
2018-09-03T11:15:40.605Z,22.07
2018-09-03T11:20:44.226Z,22.08
2018-09-03T11:25:47.814Z,22.10
2018-09-03T11:30:51.466Z,22.11
2018-09-03T11:35:55.067Z,22.15
2018-09-03T11:46:01.413Z,22.19
2018-09-03T11:51:05.018Z,22.24
2018-09-03T11:56:08.710Z,22.18
2018-09-03T12:01:12.394Z,22.29
2018-09-03T12:06:16.089Z,22.35
2018-09-03T12:11:19.730Z,22.37
2018-09-03T12:16:27.027Z,22.40
2018-09-03T12:21:30.595Z,22.40
2018-09-03T12:26:34.210Z,22.42
2018-09-03T12:31:37.777Z,22.42
2018-09-03T12:36:41.405Z,22.42
2018-09-03T12:41:45.105Z,22.44
2018-09-03T12:46:48.838Z,22.44
2018-09-03T12:51:52.615Z,22.42
2018-09-03T12:56:56.197Z,22.46
2018-09-03T13:01:59.857Z,22.46
2018-09-03T13:07:03.450Z,22.49
2018-09-03T13:12:07.075Z,22.52
2018-09-03T13:17:10.659Z,22.40
2018-09-03T13:22:14.221Z,22.33
2018-09-03T13:27:17.855Z,22.42
2018-09-03T13:32:28.066Z,22.47
2018-09-03T13:37:31.658Z,22.38
2018-09-03T13:42:35.330Z,22.25
2018-09-03T13:47:38.928Z,22.31
2018-09-03T13:52:42.669Z,22.42
2018-09-03T13:57:46.358Z,22.34
2018-09-03T14:02:49.998Z,22.21
2018-09-03T14:07:53.682Z,22.41
2018-09-03T14:13:00.135Z,22.51
2018-09-03T14:18:03.874Z,22.53
2018-09-03T14:23:07.595Z,22.55
2018-09-03T14:28:11.224Z,22.41
2018-09-03T14:33:14.803Z,22.26
2018-09-03T14:38:18.472Z,22.25
2018-09-03T14:43:22.156Z,22.39
2018-09-03T14:48:25.762Z,22.43
2018-09-03T14:53:29.381Z,22.45
2018-09-03T14:58:32.967Z,22.54
2018-09-03T15:03:36.617Z,22.40
2018-09-03T15:08:40.283Z,22.36
2018-09-03T15:13:43.918Z,22.37
2018-09-03T15:18:47.600Z,22.35
2018-09-03T15:23:51.231Z,22.34
2018-09-03T15:28:55.216Z,22.36
2018-09-03T15:33:58.887Z,22.46
2018-09-03T15:39:02.527Z,22.50
2018-09-03T15:44:06.375Z,22.57
2018-09-03T15:49:10.079Z,22.61
2018-09-03T15:54:13.839Z,22.74
2018-09-03T15:59:17.387Z,22.78
2018-09-03T16:04:21.042Z,22.71
2018-09-03T16:09:24.736Z,22.69
2018-09-03T16:14:28.478Z,22.80
2018-09-03T16:19:32.216Z,22.70
2018-09-03T16:24:36.215Z,22.62
2018-09-03T16:29:39.854Z,22.65
2018-09-03T16:34:43.493Z,22.71
2018-09-03T16:39:47.198Z,22.79
2018-09-03T16:44:50.901Z,22.70
2018-09-03T16:49:55.140Z,22.67
2018-09-03T16:54:58.887Z,22.56
2018-09-03T17:00:04.234Z,22.52
2018-09-03T17:05:08.795Z,22.53
2018-09-03T17:10:12.516Z,22.53
2018-09-03T17:15:17.397Z,22.48
2018-09-03T17:20:21.259Z,22.61
2018-09-03T17:25:25.046Z,22.70
2018-09-03T17:30:28.739Z,22.69
2018-09-03T17:35:33.707Z,22.54
2018-09-03T17:40:38.659Z,22.55
2018-09-03T17:45:43.632Z,22.46
2018-09-03T17:50:48.055Z,22.40
2018-09-03T17:55:52.793Z,22.45
2018-09-03T18:00:57.660Z,22.37
2018-09-03T18:06:01.476Z,22.30
2018-09-03T18:11:06.215Z,22.24
2018-09-03T18:16:09.966Z,22.41
2018-09-03T18:21:13.869Z,22.48
2018-09-03T18:26:18.793Z,22.47
2018-09-03T18:31:22.473Z,22.59
2018-09-03T18:36:27.223Z,22.54
2018-09-03T18:41:30.909Z,22.67
2018-09-03T18:46:35.145Z,22.71
2018-09-03T18:51:39.247Z,22.82
2018-09-03T18:56:43.758Z,23.06
2018-09-03T19:01:47.640Z,22.98
2018-09-03T19:06:51.262Z,22.94
2018-09-03T19:11:55.155Z,22.94
2018-09-03T19:17:00.112Z,23.00
2018-09-03T19:22:04.346Z,23.17
2018-09-03T19:27:10.033Z,23.13
2018-09-03T19:32:14.822Z,23.06
2018-09-03T19:37:18.619Z,22.93
2018-09-03T19:42:22.291Z,23.09
2018-09-03T19:47:26.241Z,22.83
2018-09-03T19:52:29.962Z,22.86
2018-09-03T19:57:33.725Z,22.92
2018-09-03T20:02:37.317Z,23.16
2018-09-03T20:07:41.066Z,23.18
2018-09-03T20:12:44.771Z,23.26
2018-09-03T20:17:48.460Z,23.23
2018-09-03T20:22:52.222Z,23.32
2018-09-03T20:27:56.034Z,23.32
2018-09-03T20:32:59.654Z,23.29
2018-09-03T20:38:03.322Z,23.11
2018-09-03T20:43:07.051Z,23.13
2018-09-03T20:48:10.689Z,23.19
2018-09-03T20:53:14.367Z,23.21
2018-09-03T20:58:18.646Z,23.38
2018-09-03T21:03:22.370Z,23.47
2018-09-03T21:08:26.055Z,23.31
2018-09-03T21:13:29.668Z,23.26
2018-09-03T21:18:33.342Z,23.29
2018-09-03T21:23:36.921Z,23.36
2018-09-03T21:28:40.613Z,23.63
2018-09-03T21:33:44.214Z,23.51
2018-09-03T21:38:47.942Z,23.40
2018-09-03T21:43:51.848Z,23.42
2018-09-03T21:48:55.628Z,23.38
2018-09-03T21:53:59.395Z,23.28
2018-09-03T21:59:03.725Z,23.22
2018-09-03T22:04:07.397Z,23.63
2018-09-03T22:09:11.040Z,23.64
2018-09-03T22:14:14.986Z,23.63
2018-09-03T22:19:19.423Z,23.70
2018-09-03T22:24:23.463Z,23.77
2018-09-03T22:29:27.138Z,23.75
2018-09-03T22:34:30.746Z,23.78
2018-09-03T22:39:34.378Z,23.77
2018-09-03T22:44:38.031Z,23.80
2018-09-03T22:49:41.644Z,23.81
2018-09-03T22:54:45.270Z,23.84
2018-09-03T22:59:48.865Z,23.84
2018-09-03T23:04:52.703Z,23.83
2018-09-03T23:09:56.329Z,23.83
2018-09-03T23:15:00.882Z,23.83
2018-09-03T23:20:05.352Z,23.85
2018-09-03T23:25:09.048Z,23.84
2018-09-03T23:30:12.714Z,23.84
2018-09-03T23:35:16.402Z,23.86
2018-09-03T23:40:20.012Z,23.88
2018-09-03T23:45:23.644Z,23.86
2018-09-03T23:50:27.901Z,23.84
2018-09-03T23:55:31.537Z,23.85
